sensor_id;sensor_type;location;lat;lon;timestamp;P1;durP1;ratioP1;P2;durP2;ratioP2
69854;SDS011;57146;48.140;16.304;2023-02-22T00:01:12;2.10;;;0.10;;
69854;SDS011;57146;48.140;16.304;2023-02-22T00:03:41;2.65;;;0.17;;
69854;SDS011;57146;48.140;16.304;2023-02-22T00:06:32;2.13;;;0.10;;
69854;SDS011;57146;48.140;16.304;2023-02-22T00:09:03;2.08;;;0.10;;
69854;SDS011;57146;48.140;16.304;2023-02-22T00:11:30;1.95;;;0.20;;
69854;SDS011;57146;48.140;16.304;2023-02-22T00:13:57;2.28;;;0.10;;
69854;SDS011;57146;48.140;16.304;2023-02-22T00:16:28;1.98;;;0.00;;
69854;SDS011;57146;48.140;16.304;2023-02-22T00:18:55;2.17;;;0.17;;
69854;SDS011;57146;48.140;16.304;2023-02-22T00:21:23;1.92;;;0.10;;
69854;SDS011;57146;48.140;16.304;2023-02-22T00:23:51;2.75;;;0.10;;
69854;SDS011;57146;48.140;16.304;2023-02-22T00:26:19;3.08;;;0.15;;
69854;SDS011;57146;48.140;16.304;2023-02-22T00:28:49;2.10;;;0.10;;
69854;SDS011;57146;48.140;16.304;2023-02-22T00:31:18;2.17;;;0.10;;
69854;SDS011;57146;48.140;16.304;2023-02-22T00:33:48;2.13;;;0.10;;
69854;SDS011;57146;48.140;16.304;2023-02-22T00:36:15;3.38;;;0.20;;
69854;SDS011;57146;48.140;16.304;2023-02-22T00:38:42;2.53;;;0.10;;
69854;SDS011;57146;48.140;16.304;2023-02-22T00:41:10;2.40;;;0.20;;
69854;SDS011;57146;48.140;16.304;2023-02-22T00:43:41;3.20;;;0.17;;
69854;SDS011;57146;48.140;16.304;2023-02-22T00:46:08;4.22;;;0.10;;
69854;SDS011;57146;48.140;16.304;2023-02-22T00:49:00;2.35;;;0.20;;
69854;SDS011;57146;48.140;16.304;2023-02-22T00:51:28;2.75;;;0.10;;
69854;SDS011;57146;48.140;16.304;2023-02-22T00:53:55;2.45;;;0.20;;
69854;SDS011;57146;48.140;16.304;2023-02-22T00:56:25;2.60;;;0.10;;
69854;SDS011;57146;48.140;16.304;2023-02-22T00:58:53;2.25;;;0.08;;
69854;SDS011;57146;48.140;16.304;2023-02-22T01:01:21;2.17;;;0.20;;
69854;SDS011;57146;48.140;16.304;2023-02-22T01:03:48;2.42;;;0.10;;
69854;SDS011;57146;48.140;16.304;2023-02-22T01:06:19;2.20;;;0.10;;
69854;SDS011;57146;48.140;16.304;2023-02-22T01:08:47;1.83;;;0.10;;
69854;SDS011;57146;48.140;16.304;2023-02-22T01:11:16;3.15;;;0.10;;
69854;SDS011;57146;48.140;16.304;2023-02-22T01:13:44;2.42;;;0.10;;
69854;SDS011;57146;48.140;16.304;2023-02-22T01:16:11;1.90;;;0.10;;
69854;SDS011;57146;48.140;16.304;2023-02-22T01:18:39;3.15;;;0.20;;
69854;SDS011;57146;48.140;16.304;2023-02-22T01:21:06;2.37;;;0.03;;
69854;SDS011;57146;48.140;16.304;2023-02-22T01:23:33;4.38;;;0.40;;
69854;SDS011;57146;48.140;16.304;2023-02-22T01:26:04;2.55;;;0.10;;
69854;SDS011;57146;48.140;16.304;2023-02-22T01:28:32;3.78;;;0.20;;
69854;SDS011;57146;48.140;16.304;2023-02-22T01:31:04;2.65;;;0.10;;
69854;SDS011;57146;48.140;16.304;2023-02-22T01:33:31;3.07;;;0.10;;
69854;SDS011;57146;48.140;16.304;2023-02-22T01:35:59;2.00;;;0.10;;
69854;SDS011;57146;48.140;16.304;2023-02-22T01:38:27;2.10;;;0.10;;
69854;SDS011;57146;48.140;16.304;2023-02-22T01:40:54;2.15;;;0.10;;
69854;SDS011;57146;48.140;16.304;2023-02-22T01:43:27;2.55;;;0.10;;
69854;SDS011;57146;48.140;16.304;2023-02-22T01:46:00;2.50;;;0.10;;
69854;SDS011;57146;48.140;16.304;2023-02-22T01:48:56;2.50;;;0.10;;
69854;SDS011;57146;48.140;16.304;2023-02-22T01:51:35;2.83;;;0.10;;
69854;SDS011;57146;48.140;16.304;2023-02-22T01:54:07;2.88;;;0.10;;
69854;SDS011;57146;48.140;16.304;2023-02-22T01:56:40;2.45;;;0.10;;
69854;SDS011;57146;48.140;16.304;2023-02-22T01:59:18;2.03;;;0.10;;
69854;SDS011;57146;48.140;16.304;2023-02-22T02:01:47;2.65;;;0.13;;
69854;SDS011;57146;48.140;16.304;2023-02-22T02:04:17;2.85;;;0.32;;
69854;SDS011;57146;48.140;16.304;2023-02-22T02:06:46;2.17;;;0.15;;
69854;SDS011;57146;48.140;16.304;2023-02-22T02:09:22;2.40;;;0.10;;
69854;SDS011;57146;48.140;16.304;2023-02-22T02:12:03;3.57;;;0.20;;
69854;SDS011;57146;48.140;16.304;2023-02-22T02:14:33;1.80;;;0.10;;
69854;SDS011;57146;48.140;16.304;2023-02-22T02:17:00;2.40;;;0.10;;
69854;SDS011;57146;48.140;16.304;2023-02-22T02:34:22;2.63;;;0.10;;
69854;SDS011;57146;48.140;16.304;2023-02-22T02:40:21;1.67;;;0.10;;
69854;SDS011;57146;48.140;16.304;2023-02-22T02:48:35;3.00;;;0.10;;
69854;SDS011;57146;48.140;16.304;2023-02-22T02:51:08;1.80;;;0.15;;
69854;SDS011;57146;48.140;16.304;2023-02-22T02:54:02;3.37;;;0.30;;
69854;SDS011;57146;48.140;16.304;2023-02-22T02:56:34;2.10;;;0.10;;
69854;SDS011;57146;48.140;16.304;2023-02-22T02:59:01;2.30;;;0.20;;
69854;SDS011;57146;48.140;16.304;2023-02-22T03:04:40;2.88;;;0.20;;
69854;SDS011;57146;48.140;16.304;2023-02-22T03:07:41;3.37;;;0.10;;
69854;SDS011;57146;48.140;16.304;2023-02-22T03:16:45;2.47;;;0.20;;
69854;SDS011;57146;48.140;16.304;2023-02-22T03:19:29;2.78;;;0.10;;
69854;SDS011;57146;48.140;16.304;2023-02-22T03:22:04;3.00;;;0.30;;
69854;SDS011;57146;48.140;16.304;2023-02-22T03:25:01;2.28;;;0.10;;
69854;SDS011;57146;48.140;16.304;2023-02-22T03:28:02;2.95;;;0.10;;
69854;SDS011;57146;48.140;16.304;2023-02-22T03:30:41;2.92;;;0.17;;
69854;SDS011;57146;48.140;16.304;2023-02-22T03:33:19;4.18;;;0.10;;
69854;SDS011;57146;48.140;16.304;2023-02-22T03:35:55;1.93;;;0.20;;
69854;SDS011;57146;48.140;16.304;2023-02-22T03:38:26;2.75;;;0.20;;
69854;SDS011;57146;48.140;16.304;2023-02-22T03:41:03;2.00;;;0.10;;
69854;SDS011;57146;48.140;16.304;2023-02-22T03:43:46;3.10;;;0.20;;
69854;SDS011;57146;48.140;16.304;2023-02-22T03:46:40;4.03;;;0.30;;
69854;SDS011;57146;48.140;16.304;2023-02-22T03:49:19;2.60;;;0.27;;
69854;SDS011;57146;48.140;16.304;2023-02-22T03:51:55;5.38;;;0.22;;
69854;SDS011;57146;48.140;16.304;2023-02-22T03:54:25;2.35;;;0.10;;
69854;SDS011;57146;48.140;16.304;2023-02-22T03:57:19;3.08;;;0.20;;
69854;SDS011;57146;48.140;16.304;2023-02-22T04:00:21;3.85;;;0.30;;
69854;SDS011;57146;48.140;16.304;2023-02-22T04:02:50;2.50;;;0.20;;
69854;SDS011;57146;48.140;16.304;2023-02-22T04:05:19;2.42;;;0.20;;
69854;SDS011;57146;48.140;16.304;2023-02-22T04:07:47;3.72;;;0.10;;
69854;SDS011;57146;48.140;16.304;2023-02-22T04:10:15;3.53;;;0.28;;
69854;SDS011;57146;48.140;16.304;2023-02-22T04:12:43;3.67;;;0.28;;
69854;SDS011;57146;48.140;16.304;2023-02-22T04:15:11;4.60;;;0.37;;
69854;SDS011;57146;48.140;16.304;2023-02-22T04:17:42;2.72;;;0.10;;
69854;SDS011;57146;48.140;16.304;2023-02-22T04:20:13;2.63;;;0.20;;
69854;SDS011;57146;48.140;16.304;2023-02-22T04:22:47;2.63;;;0.10;;
69854;SDS011;57146;48.140;16.304;2023-02-22T04:25:14;3.92;;;0.63;;
69854;SDS011;57146;48.140;16.304;2023-02-22T04:27:42;4.13;;;1.00;;
69854;SDS011;57146;48.140;16.304;2023-02-22T04:30:10;3.75;;;0.70;;
69854;SDS011;57146;48.140;16.304;2023-02-22T04:32:39;5.15;;;1.42;;
69854;SDS011;57146;48.140;16.304;2023-02-22T04:35:06;3.63;;;0.50;;
69854;SDS011;57146;48.140;16.304;2023-02-22T04:37:36;2.95;;;0.28;;
69854;SDS011;57146;48.140;16.304;2023-02-22T04:40:05;3.13;;;0.50;;
69854;SDS011;57146;48.140;16.304;2023-02-22T04:42:34;2.85;;;0.35;;
69854;SDS011;57146;48.140;16.304;2023-02-22T04:45:03;3.42;;;0.32;;
69854;SDS011;57146;48.140;16.304;2023-02-22T04:47:34;2.83;;;0.40;;
69854;SDS011;57146;48.140;16.304;2023-02-22T04:50:07;3.05;;;0.20;;
69854;SDS011;57146;48.140;16.304;2023-02-22T04:52:37;4.03;;;0.57;;
69854;SDS011;57146;48.140;16.304;2023-02-22T04:55:04;3.25;;;0.20;;
69854;SDS011;57146;48.140;16.304;2023-02-22T04:57:57;3.95;;;0.52;;
69854;SDS011;57146;48.140;16.304;2023-02-22T05:00:25;2.55;;;0.30;;
69854;SDS011;57146;48.140;16.304;2023-02-22T05:02:58;3.85;;;0.30;;
69854;SDS011;57146;48.140;16.304;2023-02-22T05:05:28;2.97;;;0.27;;
69854;SDS011;57146;48.140;16.304;2023-02-22T05:07:56;3.45;;;0.40;;
69854;SDS011;57146;48.140;16.304;2023-02-22T05:10:23;4.20;;;0.40;;
69854;SDS011;57146;48.140;16.304;2023-02-22T05:12:51;2.42;;;0.40;;
69854;SDS011;57146;48.140;16.304;2023-02-22T05:15:19;3.10;;;0.55;;
69854;SDS011;57146;48.140;16.304;2023-02-22T05:17:47;4.37;;;0.47;;
69854;SDS011;57146;48.140;16.304;2023-02-22T05:20:20;3.60;;;0.40;;
69854;SDS011;57146;48.140;16.304;2023-02-22T05:22:50;3.45;;;0.40;;
69854;SDS011;57146;48.140;16.304;2023-02-22T05:25:22;3.72;;;0.40;;
69854;SDS011;57146;48.140;16.304;2023-02-22T05:27:54;4.15;;;0.60;;
69854;SDS011;57146;48.140;16.304;2023-02-22T05:30:27;3.50;;;0.40;;
69854;SDS011;57146;48.140;16.304;2023-02-22T05:32:58;3.63;;;0.50;;
69854;SDS011;57146;48.140;16.304;2023-02-22T05:35:26;3.60;;;0.55;;
69854;SDS011;57146;48.140;16.304;2023-02-22T05:37:56;4.22;;;0.32;;
69854;SDS011;57146;48.140;16.304;2023-02-22T05:40:24;3.97;;;0.65;;
69854;SDS011;57146;48.140;16.304;2023-02-22T05:43:18;3.00;;;0.40;;
69854;SDS011;57146;48.140;16.304;2023-02-22T05:45:46;3.97;;;0.47;;
69854;SDS011;57146;48.140;16.304;2023-02-22T05:48:12;3.38;;;0.50;;
69854;SDS011;57146;48.140;16.304;2023-02-22T05:50:41;3.90;;;0.43;;
69854;SDS011;57146;48.140;16.304;2023-02-22T05:53:08;2.88;;;0.50;;
69854;SDS011;57146;48.140;16.304;2023-02-22T05:55:37;3.30;;;0.60;;
69854;SDS011;57146;48.140;16.304;2023-02-22T05:58:06;4.28;;;0.60;;
69854;SDS011;57146;48.140;16.304;2023-02-22T06:00:33;4.70;;;0.85;;
69854;SDS011;57146;48.140;16.304;2023-02-22T06:03:06;3.22;;;0.30;;
69854;SDS011;57146;48.140;16.304;2023-02-22T06:05:38;4.35;;;0.50;;
69854;SDS011;57146;48.140;16.304;2023-02-22T06:08:06;3.40;;;0.30;;
69854;SDS011;57146;48.140;16.304;2023-02-22T06:10:34;3.58;;;0.50;;
69854;SDS011;57146;48.140;16.304;2023-02-22T06:13:03;3.08;;;0.50;;
69854;SDS011;57146;48.140;16.304;2023-02-22T06:15:31;3.20;;;0.45;;
69854;SDS011;57146;48.140;16.304;2023-02-22T06:17:58;4.32;;;0.70;;
69854;SDS011;57146;48.140;16.304;2023-02-22T06:20:27;3.40;;;0.50;;
69854;SDS011;57146;48.140;16.304;2023-02-22T06:22:57;3.05;;;0.60;;
69854;SDS011;57146;48.140;16.304;2023-02-22T06:25:27;2.90;;;0.60;;
69854;SDS011;57146;48.140;16.304;2023-02-22T06:28:00;3.03;;;0.55;;
69854;SDS011;57146;48.140;16.304;2023-02-22T06:30:29;3.92;;;0.45;;
69854;SDS011;57146;48.140;16.304;2023-02-22T06:32:56;3.87;;;0.50;;
69854;SDS011;57146;48.140;16.304;2023-02-22T06:35:23;2.88;;;0.30;;
69854;SDS011;57146;48.140;16.304;2023-02-22T06:37:51;3.92;;;0.35;;
69854;SDS011;57146;48.140;16.304;2023-02-22T06:40:19;5.93;;;0.82;;
69854;SDS011;57146;48.140;16.304;2023-02-22T06:42:47;4.20;;;0.73;;
69854;SDS011;57146;48.140;16.304;2023-02-22T06:45:17;5.40;;;0.90;;
69854;SDS011;57146;48.140;16.304;2023-02-22T06:47:45;4.35;;;0.82;;
69854;SDS011;57146;48.140;16.304;2023-02-22T06:50:24;5.63;;;0.88;;
69854;SDS011;57146;48.140;16.304;2023-02-22T06:52:54;6.13;;;0.80;;
69854;SDS011;57146;48.140;16.304;2023-02-22T06:55:24;8.32;;;0.90;;
69854;SDS011;57146;48.140;16.304;2023-02-22T06:57:53;6.47;;;0.90;;
69854;SDS011;57146;48.140;16.304;2023-02-22T07:00:21;5.97;;;0.73;;
69854;SDS011;57146;48.140;16.304;2023-02-22T07:02:50;4.85;;;0.65;;
69854;SDS011;57146;48.140;16.304;2023-02-22T07:05:19;6.07;;;0.85;;
69854;SDS011;57146;48.140;16.304;2023-02-22T07:07:48;8.68;;;1.00;;
69854;SDS011;57146;48.140;16.304;2023-02-22T07:10:21;7.57;;;1.00;;
69854;SDS011;57146;48.140;16.304;2023-02-22T07:12:53;5.07;;;1.00;;
69854;SDS011;57146;48.140;16.304;2023-02-22T07:15:24;8.18;;;1.10;;
69854;SDS011;57146;48.140;16.304;2023-02-22T07:17:54;5.47;;;0.75;;
69854;SDS011;57146;48.140;16.304;2023-02-22T07:20:24;5.07;;;0.80;;
69854;SDS011;57146;48.140;16.304;2023-02-22T07:22:54;4.03;;;0.77;;
69854;SDS011;57146;48.140;16.304;2023-02-22T07:25:22;3.97;;;0.77;;
69854;SDS011;57146;48.140;16.304;2023-02-22T07:27:49;6.05;;;0.80;;
69854;SDS011;57146;48.140;16.304;2023-02-22T07:30:21;6.60;;;0.80;;
69854;SDS011;57146;48.140;16.304;2023-02-22T07:32:52;3.70;;;0.80;;
69854;SDS011;57146;48.140;16.304;2023-02-22T07:37:54;5.45;;;1.17;;
69854;SDS011;57146;48.140;16.304;2023-02-22T07:40:22;7.40;;;1.70;;
69854;SDS011;57146;48.140;16.304;2023-02-22T07:45:23;8.20;;;2.38;;
69854;SDS011;57146;48.140;16.304;2023-02-22T07:47:52;11.70;;;2.23;;
69854;SDS011;57146;48.140;16.304;2023-02-22T07:50:20;7.45;;;2.55;;
69854;SDS011;57146;48.140;16.304;2023-02-22T07:52:48;7.00;;;2.42;;
69854;SDS011;57146;48.140;16.304;2023-02-22T07:55:18;9.18;;;2.08;;
69854;SDS011;57146;48.140;16.304;2023-02-22T07:57:48;4.57;;;1.42;;
69854;SDS011;57146;48.140;16.304;2023-02-22T08:00:38;7.13;;;1.60;;
69854;SDS011;57146;48.140;16.304;2023-02-22T08:03:06;8.02;;;1.80;;
69854;SDS011;57146;48.140;16.304;2023-02-22T08:05:35;7.72;;;2.13;;
69854;SDS011;57146;48.140;16.304;2023-02-22T08:08:04;4.60;;;1.05;;
69854;SDS011;57146;48.140;16.304;2023-02-22T08:10:31;4.88;;;1.02;;
69854;SDS011;57146;48.140;16.304;2023-02-22T08:13:00;6.77;;;1.00;;
69854;SDS011;57146;48.140;16.304;2023-02-22T08:15:29;5.22;;;0.98;;
69854;SDS011;57146;48.140;16.304;2023-02-22T08:17:58;3.45;;;0.55;;
69854;SDS011;57146;48.140;16.304;2023-02-22T08:20:27;2.80;;;0.30;;
69854;SDS011;57146;48.140;16.304;2023-02-22T08:22:54;3.65;;;0.30;;
69854;SDS011;57146;48.140;16.304;2023-02-22T08:25:23;5.20;;;0.40;;
69854;SDS011;57146;48.140;16.304;2023-02-22T08:27:52;3.90;;;0.40;;
69854;SDS011;57146;48.140;16.304;2023-02-22T08:30:23;3.15;;;0.20;;
69854;SDS011;57146;48.140;16.304;2023-02-22T08:32:51;3.42;;;0.30;;
69854;SDS011;57146;48.140;16.304;2023-02-22T08:35:18;4.03;;;0.30;;
69854;SDS011;57146;48.140;16.304;2023-02-22T08:37:47;3.77;;;0.23;;
69854;SDS011;57146;48.140;16.304;2023-02-22T08:40:22;3.33;;;0.20;;
69854;SDS011;57146;48.140;16.304;2023-02-22T08:42:50;2.38;;;0.30;;
69854;SDS011;57146;48.140;16.304;2023-02-22T08:45:17;2.70;;;0.20;;
69854;SDS011;57146;48.140;16.304;2023-02-22T08:47:44;4.40;;;0.40;;
69854;SDS011;57146;48.140;16.304;2023-02-22T08:50:15;2.57;;;0.30;;
69854;SDS011;57146;48.140;16.304;2023-02-22T08:52:46;3.42;;;0.20;;
69854;SDS011;57146;48.140;16.304;2023-02-22T08:55:13;2.88;;;0.30;;
69854;SDS011;57146;48.140;16.304;2023-02-22T08:57:39;3.83;;;0.32;;
69854;SDS011;57146;48.140;16.304;2023-02-22T09:00:06;3.22;;;0.28;;
69854;SDS011;57146;48.140;16.304;2023-02-22T09:02:34;3.50;;;0.30;;
69854;SDS011;57146;48.140;16.304;2023-02-22T09:05:01;3.88;;;0.40;;
69854;SDS011;57146;48.140;16.304;2023-02-22T09:07:27;5.55;;;0.55;;
69854;SDS011;57146;48.140;16.304;2023-02-22T09:09:54;5.03;;;0.50;;
69854;SDS011;57146;48.140;16.304;2023-02-22T09:12:21;3.83;;;0.43;;
69854;SDS011;57146;48.140;16.304;2023-02-22T09:14:48;9.13;;;0.60;;
69854;SDS011;57146;48.140;16.304;2023-02-22T09:17:15;3.60;;;0.57;;
69854;SDS011;57146;48.140;16.304;2023-02-22T09:19:42;4.05;;;0.45;;
69854;SDS011;57146;48.140;16.304;2023-02-22T09:22:09;3.47;;;0.40;;
69854;SDS011;57146;48.140;16.304;2023-02-22T09:24:37;4.20;;;0.60;;
69854;SDS011;57146;48.140;16.304;2023-02-22T09:27:03;3.53;;;0.53;;
69854;SDS011;57146;48.140;16.304;2023-02-22T09:29:30;4.00;;;0.30;;
69854;SDS011;57146;48.140;16.304;2023-02-22T09:31:57;3.55;;;0.20;;
69854;SDS011;57146;48.140;16.304;2023-02-22T09:34:24;2.90;;;0.20;;
69854;SDS011;57146;48.140;16.304;2023-02-22T09:36:51;2.72;;;0.10;;
69854;SDS011;57146;48.140;16.304;2023-02-22T09:39:18;1.87;;;0.10;;
69854;SDS011;57146;48.140;16.304;2023-02-22T09:41:48;2.38;;;0.10;;
69854;SDS011;57146;48.140;16.304;2023-02-22T09:44:28;3.20;;;0.20;;
69854;SDS011;57146;48.140;16.304;2023-02-22T09:47:03;2.92;;;0.10;;
69854;SDS011;57146;48.140;16.304;2023-02-22T09:49:39;2.30;;;0.20;;
69854;SDS011;57146;48.140;16.304;2023-02-22T09:52:15;2.67;;;0.20;;
69854;SDS011;57146;48.140;16.304;2023-02-22T09:54:51;2.05;;;0.15;;
69854;SDS011;57146;48.140;16.304;2023-02-22T09:57:30;2.65;;;0.20;;
69854;SDS011;57146;48.140;16.304;2023-02-22T10:02:59;2.83;;;0.20;;
69854;SDS011;57146;48.140;16.304;2023-02-22T10:05:49;2.67;;;0.20;;
69854;SDS011;57146;48.140;16.304;2023-02-22T10:08:27;2.70;;;0.20;;
69854;SDS011;57146;48.140;16.304;2023-02-22T10:19:06;3.07;;;0.30;;
69854;SDS011;57146;48.140;16.304;2023-02-22T10:27:12;2.92;;;0.20;;
69854;SDS011;57146;48.140;16.304;2023-02-22T10:29:45;2.80;;;0.30;;
69854;SDS011;57146;48.140;16.304;2023-02-22T10:32:25;3.67;;;0.40;;
69854;SDS011;57146;48.140;16.304;2023-02-22T10:34:57;2.80;;;0.20;;
69854;SDS011;57146;48.140;16.304;2023-02-22T10:37:31;4.00;;;0.30;;
69854;SDS011;57146;48.140;16.304;2023-02-22T10:42:39;3.30;;;0.60;;
69854;SDS011;57146;48.140;16.304;2023-02-22T10:45:13;2.00;;;0.20;;
69854;SDS011;57146;48.140;16.304;2023-02-22T10:47:46;5.53;;;0.57;;
69854;SDS011;57146;48.140;16.304;2023-02-22T10:50:13;3.58;;;0.50;;
69854;SDS011;57146;48.140;16.304;2023-02-22T10:52:41;3.63;;;0.50;;
69854;SDS011;57146;48.140;16.304;2023-02-22T10:55:10;3.47;;;0.60;;
69854;SDS011;57146;48.140;16.304;2023-02-22T10:57:43;3.33;;;0.53;;
69854;SDS011;57146;48.140;16.304;2023-02-22T11:00:17;4.95;;;0.38;;
69854;SDS011;57146;48.140;16.304;2023-02-22T11:02:49;2.90;;;0.30;;
69854;SDS011;57146;48.140;16.304;2023-02-22T11:05:29;3.30;;;0.40;;
69854;SDS011;57146;48.140;16.304;2023-02-22T11:10:41;3.83;;;0.30;;
69854;SDS011;57146;48.140;16.304;2023-02-22T11:13:16;3.20;;;0.50;;
69854;SDS011;57146;48.140;16.304;2023-02-22T11:15:43;3.80;;;0.50;;
69854;SDS011;57146;48.140;16.304;2023-02-22T11:18:30;3.28;;;0.40;;
69854;SDS011;57146;48.140;16.304;2023-02-22T11:21:02;3.80;;;0.50;;
69854;SDS011;57146;48.140;16.304;2023-02-22T11:23:32;6.20;;;0.40;;
69854;SDS011;57146;48.140;16.304;2023-02-22T11:26:04;2.60;;;0.30;;
69854;SDS011;57146;48.140;16.304;2023-02-22T11:28:34;3.20;;;0.40;;
69854;SDS011;57146;48.140;16.304;2023-02-22T11:31:16;3.85;;;1.02;;
69854;SDS011;57146;48.140;16.304;2023-02-22T11:33:56;3.88;;;0.60;;
69854;SDS011;57146;48.140;16.304;2023-02-22T11:36:38;2.67;;;0.37;;
69854;SDS011;57146;48.140;16.304;2023-02-22T11:41:50;3.00;;;0.60;;
69854;SDS011;57146;48.140;16.304;2023-02-22T11:44:27;3.50;;;0.73;;
69854;SDS011;57146;48.140;16.304;2023-02-22T11:46:56;5.07;;;0.82;;
69854;SDS011;57146;48.140;16.304;2023-02-22T11:49:33;4.63;;;0.90;;
69854;SDS011;57146;48.140;16.304;2023-02-22T11:52:17;3.97;;;0.90;;
69854;SDS011;57146;48.140;16.304;2023-02-22T11:58:26;3.72;;;0.85;;
69854;SDS011;57146;48.140;16.304;2023-02-22T12:04:12;4.60;;;0.70;;
69854;SDS011;57146;48.140;16.304;2023-02-22T12:15:41;4.10;;;0.80;;
69854;SDS011;57146;48.140;16.304;2023-02-22T12:18:20;4.70;;;0.90;;
69854;SDS011;57146;48.140;16.304;2023-02-22T12:21:08;4.55;;;0.85;;
69854;SDS011;57146;48.140;16.304;2023-02-22T12:23:42;4.30;;;1.08;;
69854;SDS011;57146;48.140;16.304;2023-02-22T12:29:08;6.18;;;1.60;;
69854;SDS011;57146;48.140;16.304;2023-02-22T12:31:40;4.17;;;0.90;;
69854;SDS011;57146;48.140;16.304;2023-02-22T12:45:00;6.23;;;1.30;;
69854;SDS011;57146;48.140;16.304;2023-02-22T12:47:38;4.30;;;0.70;;
69854;SDS011;57146;48.140;16.304;2023-02-22T12:50:12;4.40;;;1.00;;
69854;SDS011;57146;48.140;16.304;2023-02-22T12:52:58;4.40;;;0.93;;
69854;SDS011;57146;48.140;16.304;2023-02-22T12:55:41;3.60;;;0.73;;
69854;SDS011;57146;48.140;16.304;2023-02-22T12:58:29;4.23;;;0.80;;
69854;SDS011;57146;48.140;16.304;2023-02-22T13:01:04;7.10;;;0.85;;
69854;SDS011;57146;48.140;16.304;2023-02-22T13:03:38;6.03;;;1.00;;
69854;SDS011;57146;48.140;16.304;2023-02-22T13:17:23;3.97;;;0.80;;
69854;SDS011;57146;48.140;16.304;2023-02-22T13:22:28;4.03;;;0.85;;
69854;SDS011;57146;48.140;16.304;2023-02-22T13:27:46;3.55;;;0.60;;
69854;SDS011;57146;48.140;16.304;2023-02-22T13:43:50;3.85;;;0.63;;
69854;SDS011;57146;48.140;16.304;2023-02-22T13:52:05;4.40;;;0.83;;
69854;SDS011;57146;48.140;16.304;2023-02-22T13:54:54;5.55;;;0.80;;
69854;SDS011;57146;48.140;16.304;2023-02-22T13:57:27;4.93;;;0.82;;
69854;SDS011;57146;48.140;16.304;2023-02-22T14:00:44;4.10;;;1.00;;
69854;SDS011;57146;48.140;16.304;2023-02-22T14:13:09;3.72;;;0.82;;
69854;SDS011;57146;48.140;16.304;2023-02-22T14:16:20;6.82;;;0.90;;
69854;SDS011;57146;48.140;16.304;2023-02-22T14:18:34;5.27;;;0.87;;
69854;SDS011;57146;48.140;16.304;2023-02-22T14:23:46;5.70;;;1.17;;
69854;SDS011;57146;48.140;16.304;2023-02-22T14:26:22;4.35;;;1.00;;
69854;SDS011;57146;48.140;16.304;2023-02-22T14:28:51;3.70;;;0.90;;
69854;SDS011;57146;48.140;16.304;2023-02-22T14:31:24;4.70;;;1.10;;
69854;SDS011;57146;48.140;16.304;2023-02-22T14:42:09;5.25;;;1.30;;
69854;SDS011;57146;48.140;16.304;2023-02-22T14:45:31;5.43;;;1.53;;
69854;SDS011;57146;48.140;16.304;2023-02-22T14:50:07;6.38;;;1.60;;
69854;SDS011;57146;48.140;16.304;2023-02-22T14:52:38;5.45;;;1.67;;
69854;SDS011;57146;48.140;16.304;2023-02-22T15:00:45;4.22;;;1.10;;
69854;SDS011;57146;48.140;16.304;2023-02-22T15:05:55;9.40;;;1.80;;
69854;SDS011;57146;48.140;16.304;2023-02-22T15:08:22;4.35;;;1.08;;
69854;SDS011;57146;48.140;16.304;2023-02-22T15:10:49;4.70;;;1.20;;
69854;SDS011;57146;48.140;16.304;2023-02-22T15:13:18;4.38;;;1.08;;
69854;SDS011;57146;48.140;16.304;2023-02-22T15:15:54;4.07;;;1.13;;
69854;SDS011;57146;48.140;16.304;2023-02-22T15:18:34;4.93;;;1.00;;
69854;SDS011;57146;48.140;16.304;2023-02-22T15:21:13;5.00;;;1.40;;
69854;SDS011;57146;48.140;16.304;2023-02-22T15:23:47;6.13;;;1.30;;
69854;SDS011;57146;48.140;16.304;2023-02-22T15:28:53;5.07;;;1.20;;
69854;SDS011;57146;48.140;16.304;2023-02-22T15:31:31;6.45;;;1.15;;
69854;SDS011;57146;48.140;16.304;2023-02-22T15:36:50;4.13;;;1.10;;
69854;SDS011;57146;48.140;16.304;2023-02-22T15:39:23;5.20;;;1.20;;
69854;SDS011;57146;48.140;16.304;2023-02-22T15:42:02;6.32;;;1.83;;
69854;SDS011;57146;48.140;16.304;2023-02-22T15:44:37;5.70;;;1.65;;
69854;SDS011;57146;48.140;16.304;2023-02-22T15:47:08;4.43;;;1.30;;
69854;SDS011;57146;48.140;16.304;2023-02-22T15:49:41;6.30;;;1.53;;
69854;SDS011;57146;48.140;16.304;2023-02-22T15:52:18;5.22;;;1.35;;
69854;SDS011;57146;48.140;16.304;2023-02-22T15:54:48;5.57;;;1.10;;
69854;SDS011;57146;48.140;16.304;2023-02-22T15:57:17;5.57;;;1.20;;
69854;SDS011;57146;48.140;16.304;2023-02-22T15:59:48;4.63;;;1.15;;
69854;SDS011;57146;48.140;16.304;2023-02-22T16:03:00;4.73;;;1.17;;
69854;SDS011;57146;48.140;16.304;2023-02-22T16:05:11;4.95;;;1.33;;
69854;SDS011;57146;48.140;16.304;2023-02-22T16:07:41;4.05;;;1.10;;
69854;SDS011;57146;48.140;16.304;2023-02-22T16:13:19;4.00;;;1.00;;
69854;SDS011;57146;48.140;16.304;2023-02-22T16:16:04;5.27;;;1.20;;
69854;SDS011;57146;48.140;16.304;2023-02-22T16:18:48;8.98;;;1.08;;
69854;SDS011;57146;48.140;16.304;2023-02-22T16:21:20;5.68;;;1.00;;
69854;SDS011;57146;48.140;16.304;2023-02-22T16:23:49;4.95;;;1.08;;
69854;SDS011;57146;48.140;16.304;2023-02-22T16:26:32;4.90;;;0.95;;
69854;SDS011;57146;48.140;16.304;2023-02-22T16:29:02;4.30;;;0.80;;
69854;SDS011;57146;48.140;16.304;2023-02-22T16:31:34;6.47;;;1.10;;
69854;SDS011;57146;48.140;16.304;2023-02-22T16:34:06;6.43;;;1.33;;
69854;SDS011;57146;48.140;16.304;2023-02-22T16:36:39;4.70;;;1.13;;
69854;SDS011;57146;48.140;16.304;2023-02-22T16:39:13;4.45;;;1.30;;
69854;SDS011;57146;48.140;16.304;2023-02-22T16:41:50;4.90;;;1.50;;
69854;SDS011;57146;48.140;16.304;2023-02-22T16:44:17;5.47;;;1.20;;
69854;SDS011;57146;48.140;16.304;2023-02-22T16:46:44;6.35;;;1.40;;
69854;SDS011;57146;48.140;16.304;2023-02-22T16:49:11;6.85;;;1.30;;
69854;SDS011;57146;48.140;16.304;2023-02-22T16:51:40;4.70;;;1.38;;
69854;SDS011;57146;48.140;16.304;2023-02-22T16:54:24;5.90;;;1.67;;
69854;SDS011;57146;48.140;16.304;2023-02-22T16:56:55;10.82;;;2.03;;
69854;SDS011;57146;48.140;16.304;2023-02-22T16:59:23;7.28;;;1.80;;
69854;SDS011;57146;48.140;16.304;2023-02-22T17:01:50;6.60;;;1.83;;
69854;SDS011;57146;48.140;16.304;2023-02-22T17:04:21;7.47;;;2.13;;
69854;SDS011;57146;48.140;16.304;2023-02-22T17:06:49;5.20;;;1.90;;
69854;SDS011;57146;48.140;16.304;2023-02-22T17:09:17;5.75;;;2.10;;
69854;SDS011;57146;48.140;16.304;2023-02-22T17:11:46;6.95;;;2.22;;
69854;SDS011;57146;48.140;16.304;2023-02-22T17:14:19;6.53;;;2.22;;
69854;SDS011;57146;48.140;16.304;2023-02-22T17:16:49;6.40;;;2.20;;
69854;SDS011;57146;48.140;16.304;2023-02-22T17:19:18;7.83;;;2.63;;
69854;SDS011;57146;48.140;16.304;2023-02-22T17:21:51;6.72;;;2.70;;
69854;SDS011;57146;48.140;16.304;2023-02-22T17:24:20;7.70;;;2.65;;
69854;SDS011;57146;48.140;16.304;2023-02-22T17:26:50;7.18;;;2.63;;
69854;SDS011;57146;48.140;16.304;2023-02-22T17:29:17;7.28;;;2.90;;
69854;SDS011;57146;48.140;16.304;2023-02-22T17:31:46;7.10;;;3.07;;
69854;SDS011;57146;48.140;16.304;2023-02-22T17:34:13;6.68;;;2.70;;
69854;SDS011;57146;48.140;16.304;2023-02-22T17:36:41;8.00;;;3.03;;
69854;SDS011;57146;48.140;16.304;2023-02-22T17:39:08;8.60;;;3.40;;
69854;SDS011;57146;48.140;16.304;2023-02-22T17:41:36;13.30;;;3.30;;
69854;SDS011;57146;48.140;16.304;2023-02-22T17:44:06;8.60;;;3.53;;
69854;SDS011;57146;48.140;16.304;2023-02-22T17:46:34;9.13;;;3.28;;
69854;SDS011;57146;48.140;16.304;2023-02-22T17:49:04;8.60;;;3.67;;
69854;SDS011;57146;48.140;16.304;2023-02-22T17:51:32;8.88;;;3.53;;